sensor_id;sensor_type;location;lat;lon;timestamp;pressure;altitude;pressure_sealevel;temperature;humidity
45040;BME280;30778;53.574;7.770;2023-07-20T00:02:23;101313.41;;;13.60;56.69
45040;BME280;30778;53.574;7.770;2023-07-20T00:04:49;101310.59;;;13.65;56.76
45040;BME280;30778;53.574;7.770;2023-07-20T00:07:14;101310.00;;;13.58;56.56
45040;BME280;30778;53.574;7.770;2023-07-20T00:09:40;101314.41;;;13.58;56.59
45040;BME280;30778;53.574;7.770;2023-07-20T00:12:06;101316.03;;;13.60;56.43
45040;BME280;30778;53.574;7.770;2023-07-20T00:14:34;101306.56;;;13.56;56.43
45040;BME280;30778;53.574;7.770;2023-07-20T00:16:59;101310.59;;;13.65;56.32
45040;BME280;30778;53.574;7.770;2023-07-20T00:19:28;101307.94;;;13.65;56.18
45040;BME280;30778;53.574;7.770;2023-07-20T00:21:56;101300.47;;;13.56;56.02
45040;BME280;30778;53.574;7.770;2023-07-20T00:24:21;101305.47;;;13.62;56.28
45040;BME280;30778;53.574;7.770;2023-07-20T00:26:47;101300.63;;;13.52;56.11
45040;BME280;30778;53.574;7.770;2023-07-20T00:29:16;101312.72;;;13.57;56.25
45040;BME280;30778;53.574;7.770;2023-07-20T00:31:41;101302.06;;;13.60;56.34
45040;BME280;30778;53.574;7.770;2023-07-20T00:34:08;101299.84;;;13.50;55.79
45040;BME280;30778;53.574;7.770;2023-07-20T00:36:34;101297.38;;;13.47;56.16
45040;BME280;30778;53.574;7.770;2023-07-20T00:39:02;101298.13;;;13.49;56.09
45040;BME280;30778;53.574;7.770;2023-07-20T00:41:28;101303.06;;;13.57;56.03
45040;BME280;30778;53.574;7.770;2023-07-20T00:43:55;101303.06;;;13.57;56.10
45040;BME280;30778;53.574;7.770;2023-07-20T00:46:24;101303.91;;;13.58;55.81
45040;BME280;30778;53.574;7.770;2023-07-20T00:48:51;101308.56;;;13.51;55.96
45040;BME280;30778;53.574;7.770;2023-07-20T00:51:18;101305.63;;;13.38;55.80
45040;BME280;30778;53.574;7.770;2023-07-20T00:53:49;101306.56;;;13.37;55.71
45040;BME280;30778;53.574;7.770;2023-07-20T00:56:17;101300.94;;;13.26;55.96
45040;BME280;30778;53.574;7.770;2023-07-20T00:58:48;101309.47;;;13.31;55.82
45040;BME280;30778;53.574;7.770;2023-07-20T01:01:16;101310.50;;;13.27;55.54
45040;BME280;30778;53.574;7.770;2023-07-20T01:03:43;101302.00;;;13.22;55.33
45040;BME280;30778;53.574;7.770;2023-07-20T01:06:29;101308.75;;;13.27;55.65
45040;BME280;30778;53.574;7.770;2023-07-20T01:09:02;101309.81;;;13.23;55.57
45040;BME280;30778;53.574;7.770;2023-07-20T01:11:42;101315.75;;;13.27;55.55
45040;BME280;30778;53.574;7.770;2023-07-20T01:14:16;101311.50;;;13.24;55.39
45040;BME280;30778;53.574;7.770;2023-07-20T01:16:42;101317.47;;;13.28;55.62
45040;BME280;30778;53.574;7.770;2023-07-20T01:19:07;101321.31;;;13.21;55.46
45040;BME280;30778;53.574;7.770;2023-07-20T01:28:02;101319.34;;;13.05;55.68
45040;BME280;30778;53.574;7.770;2023-07-20T01:30:45;101323.41;;;13.13;55.90
45040;BME280;30778;53.574;7.770;2023-07-20T01:33:15;101317.81;;;13.00;55.88
45040;BME280;30778;53.574;7.770;2023-07-20T01:35:43;101323.16;;;12.98;55.65
45040;BME280;30778;53.574;7.770;2023-07-20T01:38:13;101325.91;;;12.95;55.65
45040;BME280;30778;53.574;7.770;2023-07-20T01:40:42;101320.91;;;12.89;55.55
45040;BME280;30778;53.574;7.770;2023-07-20T01:43:08;101314.69;;;12.92;55.41
45040;BME280;30778;53.574;7.770;2023-07-20T01:45:35;101312.13;;;12.90;55.44
45040;BME280;30778;53.574;7.770;2023-07-20T01:48:03;101317.03;;;12.77;55.38
45040;BME280;30778;53.574;7.770;2023-07-20T01:50:28;101314.41;;;12.77;55.20
45040;BME280;30778;53.574;7.770;2023-07-20T01:52:54;101315.75;;;12.65;55.37
45040;BME280;30778;53.574;7.770;2023-07-20T01:55:21;101309.88;;;12.60;55.35
45040;BME280;30778;53.574;7.770;2023-07-20T01:57:47;101310.09;;;12.54;55.71
45040;BME280;30778;53.574;7.770;2023-07-20T02:00:13;101303.28;;;12.50;55.35
45040;BME280;30778;53.574;7.770;2023-07-20T02:02:42;101306.22;;;12.42;55.54
45040;BME280;30778;53.574;7.770;2023-07-20T02:05:09;101307.50;;;12.32;55.58
45040;BME280;30778;53.574;7.770;2023-07-20T02:07:34;101306.25;;;12.20;55.57
45040;BME280;30778;53.574;7.770;2023-07-20T02:10:00;101311.06;;;12.09;55.81
45040;BME280;30778;53.574;7.770;2023-07-20T02:12:25;101308.91;;;11.97;56.01
45040;BME280;30778;53.574;7.770;2023-07-20T02:14:53;101308.94;;;11.95;56.26
45040;BME280;30778;53.574;7.770;2023-07-20T02:17:21;101300.91;;;12.00;56.06
45040;BME280;30778;53.574;7.770;2023-07-20T02:19:51;101304.50;;;11.97;55.98
45040;BME280;30778;53.574;7.770;2023-07-20T02:22:17;101309.03;;;11.94;55.99
45040;BME280;30778;53.574;7.770;2023-07-20T02:24:42;101299.59;;;11.90;55.80
45040;BME280;30778;53.574;7.770;2023-07-20T02:27:08;101295.38;;;11.85;56.00
45040;BME280;30778;53.574;7.770;2023-07-20T02:29:33;101293.78;;;11.81;56.05
45040;BME280;30778;53.574;7.770;2023-07-20T02:32:01;101290.47;;;11.76;55.98
45040;BME280;30778;53.574;7.770;2023-07-20T02:34:27;101300.94;;;11.76;55.82
45040;BME280;30778;53.574;7.770;2023-07-20T02:36:52;101302.44;;;11.60;55.79
45040;BME280;30778;53.574;7.770;2023-07-20T02:39:18;101298.66;;;11.43;56.25
45040;BME280;30778;53.574;7.770;2023-07-20T02:41:43;101300.44;;;11.43;56.44
45040;BME280;30778;53.574;7.770;2023-07-20T02:44:09;101297.06;;;11.39;56.50
45040;BME280;30778;53.574;7.770;2023-07-20T02:46:34;101303.28;;;11.37;56.19
45040;BME280;30778;53.574;7.770;2023-07-20T02:49:00;101303.28;;;11.37;56.39
45040;BME280;30778;53.574;7.770;2023-07-20T02:51:26;101307.66;;;11.36;56.38
45040;BME280;30778;53.574;7.770;2023-07-20T02:53:51;101315.63;;;11.33;56.68
45040;BME280;30778;53.574;7.770;2023-07-20T02:56:17;101306.06;;;11.32;56.47
45040;BME280;30778;53.574;7.770;2023-07-20T02:58:45;101299.84;;;11.35;56.38
45040;BME280;30778;53.574;7.770;2023-07-20T03:01:13;101302.47;;;11.35;56.44
45040;BME280;30778;53.574;7.770;2023-07-20T03:03:42;101309.81;;;11.25;56.30
45040;BME280;30778;53.574;7.770;2023-07-20T03:06:13;101306.38;;;11.23;56.36
45040;BME280;30778;53.574;7.770;2023-07-20T03:08:41;101308.31;;;11.18;56.24
45040;BME280;30778;53.574;7.770;2023-07-20T03:11:07;101317.16;;;11.15;56.49
45040;BME280;30778;53.574;7.770;2023-07-20T03:13:33;101314.69;;;11.11;56.48
45040;BME280;30778;53.574;7.770;2023-07-20T03:15:58;101310.69;;;11.00;56.55
45040;BME280;30778;53.574;7.770;2023-07-20T03:18:24;101319.91;;;11.11;56.45
45040;BME280;30778;53.574;7.770;2023-07-20T03:20:49;101319.13;;;11.09;56.82
45040;BME280;30778;53.574;7.770;2023-07-20T03:23:16;101321.94;;;11.02;56.60
45040;BME280;30778;53.574;7.770;2023-07-20T03:25:42;101324.34;;;11.09;56.98
45040;BME280;30778;53.574;7.770;2023-07-20T03:28:09;101325.84;;;11.16;56.78
45040;BME280;30778;53.574;7.770;2023-07-20T03:30:37;101325.84;;;11.16;56.59
45040;BME280;30778;53.574;7.770;2023-07-20T03:33:03;101318.78;;;11.18;56.55
45040;BME280;30778;53.574;7.770;2023-07-20T03:35:31;101326.56;;;11.19;56.54
45040;BME280;30778;53.574;7.770;2023-07-20T03:37:56;101320.47;;;11.19;56.44
45040;BME280;30778;53.574;7.770;2023-07-20T03:40:22;101324.22;;;11.12;56.66
45040;BME280;30778;53.574;7.770;2023-07-20T03:42:48;101315.03;;;11.25;56.62
45040;BME280;30778;53.574;7.770;2023-07-20T03:45:14;101315.38;;;11.16;56.27
45040;BME280;30778;53.574;7.770;2023-07-20T03:47:40;101317.53;;;11.28;56.46
45040;BME280;30778;53.574;7.770;2023-07-20T03:50:06;101313.00;;;11.33;56.54
45040;BME280;30778;53.574;7.770;2023-07-20T03:52:32;101316.19;;;11.41;56.36
45040;BME280;30778;53.574;7.770;2023-07-20T03:55:02;101340.91;;;11.58;55.93
45040;BME280;30778;53.574;7.770;2023-07-20T03:57:27;101348.34;;;11.45;55.94
45040;BME280;30778;53.574;7.770;2023-07-20T03:59:53;101346.16;;;11.33;56.47
45040;BME280;30778;53.574;7.770;2023-07-20T04:02:21;101342.19;;;11.22;56.88
45040;BME280;30778;53.574;7.770;2023-07-20T04:04:49;101342.22;;;11.21;57.38
45040;BME280;30778;53.574;7.770;2023-07-20T04:07:14;101341.63;;;11.13;57.71
45040;BME280;30778;53.574;7.770;2023-07-20T04:09:44;101334.84;;;10.80;58.30
45040;BME280;30778;53.574;7.770;2023-07-20T04:12:10;101333.41;;;10.98;58.18
45040;BME280;30778;53.574;7.770;2023-07-20T04:14:38;101326.25;;;11.03;58.08
45040;BME280;30778;53.574;7.770;2023-07-20T04:17:05;101327.53;;;11.17;57.79
45040;BME280;30778;53.574;7.770;2023-07-20T04:19:31;101328.81;;;11.30;57.24
45040;BME280;30778;53.574;7.770;2023-07-20T04:21:57;101331.53;;;11.27;57.50
45040;BME280;30778;53.574;7.770;2023-07-20T04:24:22;101336.91;;;11.48;57.23
45040;BME280;30778;53.574;7.770;2023-07-20T04:26:48;101329.63;;;11.56;56.97
45040;BME280;30778;53.574;7.770;2023-07-20T04:29:13;101334.41;;;11.68;56.87
45040;BME280;30778;53.574;7.770;2023-07-20T04:31:44;101330.75;;;11.72;56.44
45040;BME280;30778;53.574;7.770;2023-07-20T04:34:10;101333.72;;;11.86;56.36
45040;BME280;30778;53.574;7.770;2023-07-20T04:36:36;101332.25;;;11.79;55.92
45040;BME280;30778;53.574;7.770;2023-07-20T04:39:06;101339.09;;;11.83;56.14
45040;BME280;30778;53.574;7.770;2023-07-20T04:41:37;101333.91;;;11.82;56.22
45040;BME280;30778;53.574;7.770;2023-07-20T04:44:05;101340.91;;;11.81;55.58
45040;BME280;30778;53.574;7.770;2023-07-20T04:46:31;101344.47;;;11.80;55.75
45040;BME280;30778;53.574;7.770;2023-07-20T04:48:58;101342.69;;;11.81;55.95
45040;BME280;30778;53.574;7.770;2023-07-20T04:51:25;101347.44;;;11.70;55.43
45040;BME280;30778;53.574;7.770;2023-07-20T04:53:54;101350.19;;;11.66;56.17
45040;BME280;30778;53.574;7.770;2023-07-20T04:56:19;101357.06;;;11.69;56.02
45040;BME280;30778;53.574;7.770;2023-07-20T04:58:46;101355.75;;;11.82;56.08
45040;BME280;30778;53.574;7.770;2023-07-20T05:01:14;101357.84;;;11.96;55.48
45040;BME280;30778;53.574;7.770;2023-07-20T05:03:40;101355.34;;;12.81;54.78
45040;BME280;30778;53.574;7.770;2023-07-20T05:06:07;101346.03;;;14.49;49.90
45040;BME280;30778;53.574;7.770;2023-07-20T05:08:33;101345.00;;;15.88;47.39
45040;BME280;30778;53.574;7.770;2023-07-20T05:10:59;101350.00;;;16.87;44.55
45040;BME280;30778;53.574;7.770;2023-07-20T05:13:27;101350.09;;;17.73;42.19
45040;BME280;30778;53.574;7.770;2023-07-20T05:15:53;101353.03;;;16.18;44.40
45040;BME280;30778;53.574;7.770;2023-07-20T05:18:22;101349.91;;;15.12;46.90
45040;BME280;30778;53.574;7.770;2023-07-20T05:20:49;101353.72;;;14.16;48.53
45040;BME280;30778;53.574;7.770;2023-07-20T05:23:19;101352.75;;;13.81;51.04
45040;BME280;30778;53.574;7.770;2023-07-20T05:25:56;101354.00;;;14.29;50.39
45040;BME280;30778;53.574;7.770;2023-07-20T05:28:22;101348.94;;;15.48;48.34
45040;BME280;30778;53.574;7.770;2023-07-20T05:30:48;101357.81;;;17.90;43.99
45040;BME280;30778;53.574;7.770;2023-07-20T05:33:16;101348.22;;;19.47;38.89
45040;BME280;30778;53.574;7.770;2023-07-20T05:35:41;101344.94;;;19.57;39.17
45040;BME280;30778;53.574;7.770;2023-07-20T05:38:07;101346.84;;;20.04;38.45
45040;BME280;30778;53.574;7.770;2023-07-20T05:40:33;101345.72;;;19.96;36.91
45040;BME280;30778;53.574;7.770;2023-07-20T05:42:59;101352.00;;;20.43;35.12
45040;BME280;30778;53.574;7.770;2023-07-20T05:45:26;101351.41;;;18.88;39.16
45040;BME280;30778;53.574;7.770;2023-07-20T05:47:51;101350.16;;;19.07;39.38
45040;BME280;30778;53.574;7.770;2023-07-20T05:50:17;101345.72;;;18.67;38.34
45040;BME280;30778;53.574;7.770;2023-07-20T05:52:44;101350.69;;;20.48;36.21
45040;BME280;30778;53.574;7.770;2023-07-20T05:55:12;101347.22;;;22.07;34.43
45040;BME280;30778;53.574;7.770;2023-07-20T05:57:40;101335.06;;;23.00;31.33
45040;BME280;30778;53.574;7.770;2023-07-20T06:00:08;101345.84;;;23.19;33.85
45040;BME280;30778;53.574;7.770;2023-07-20T06:02:41;101344.94;;;23.80;32.49
45040;BME280;30778;53.574;7.770;2023-07-20T06:05:07;101346.31;;;24.15;30.60
45040;BME280;30778;53.574;7.770;2023-07-20T06:07:36;101353.72;;;24.99;29.51
45040;BME280;30778;53.574;7.770;2023-07-20T06:10:02;101347.47;;;24.42;30.17
45040;BME280;30778;53.574;7.770;2023-07-20T06:12:27;101348.16;;;24.54;30.85
45040;BME280;30778;53.574;7.770;2023-07-20T06:14:53;101348.44;;;25.27;29.11
45040;BME280;30778;53.574;7.770;2023-07-20T06:17:26;101345.56;;;24.91;27.82
45040;BME280;30778;53.574;7.770;2023-07-20T06:19:52;101342.81;;;25.85;28.42
45040;BME280;30778;53.574;7.770;2023-07-20T06:22:17;101346.50;;;25.57;28.54
45040;BME280;30778;53.574;7.770;2023-07-20T06:24:43;101343.63;;;24.74;28.58
45040;BME280;30778;53.574;7.770;2023-07-20T06:27:08;101349.44;;;24.59;29.61
45040;BME280;30778;53.574;7.770;2023-07-20T06:29:34;101349.25;;;25.00;28.85
45040;BME280;30778;53.574;7.770;2023-07-20T06:31:59;101349.63;;;25.05;28.27
45040;BME280;30778;53.574;7.770;2023-07-20T06:34:25;101356.72;;;23.28;30.82
45040;BME280;30778;53.574;7.770;2023-07-20T06:36:50;101358.59;;;23.16;31.57
45040;BME280;30778;53.574;7.770;2023-07-20T06:39:16;101359.53;;;24.75;28.94
45040;BME280;30778;53.574;7.770;2023-07-20T06:41:48;101354.56;;;26.20;28.52
45040;BME280;30778;53.574;7.770;2023-07-20T06:44:14;101355.03;;;25.88;27.39
45040;BME280;30778;53.574;7.770;2023-07-20T06:46:39;101353.09;;;26.26;28.22
45040;BME280;30778;53.574;7.770;2023-07-20T06:49:06;101358.13;;;26.83;26.23
45040;BME280;30778;53.574;7.770;2023-07-20T06:51:37;101355.94;;;26.60;26.61
45040;BME280;30778;53.574;7.770;2023-07-20T06:54:02;101352.09;;;26.45;25.20
45040;BME280;30778;53.574;7.770;2023-07-20T06:56:35;101358.19;;;26.01;27.67
45040;BME280;30778;53.574;7.770;2023-07-20T06:59:03;101357.28;;;27.43;25.62
45040;BME280;30778;53.574;7.770;2023-07-20T07:01:29;101356.47;;;23.10;29.31
45040;BME280;30778;53.574;7.770;2023-07-20T07:03:57;101366.41;;;20.51;33.42
45040;BME280;30778;53.574;7.770;2023-07-20T07:06:24;101370.38;;;18.14;38.31
45040;BME280;30778;53.574;7.770;2023-07-20T07:08:51;101368.31;;;17.49;39.72
45040;BME280;30778;53.574;7.770;2023-07-20T07:11:17;101371.66;;;16.77;41.04
45040;BME280;30778;53.574;7.770;2023-07-20T07:13:42;101375.84;;;18.39;37.58
45040;BME280;30778;53.574;7.770;2023-07-20T07:16:08;101369.34;;;21.06;34.50
45040;BME280;30778;53.574;7.770;2023-07-20T07:18:33;101366.94;;;23.53;30.88
45040;BME280;30778;53.574;7.770;2023-07-20T07:20:58;101368.72;;;23.83;27.93
45040;BME280;30778;53.574;7.770;2023-07-20T07:23:24;101375.97;;;24.22;28.81
45040;BME280;30778;53.574;7.770;2023-07-20T07:25:49;101375.72;;;24.35;26.08
45040;BME280;30778;53.574;7.770;2023-07-20T07:28:15;101376.53;;;24.84;26.24
45040;BME280;30778;53.574;7.770;2023-07-20T07:30:41;101385.75;;;25.19;25.86
45040;BME280;30778;53.574;7.770;2023-07-20T07:33:09;101380.47;;;24.21;26.88
45040;BME280;30778;53.574;7.770;2023-07-20T07:35:38;101385.09;;;23.08;28.56
45040;BME280;30778;53.574;7.770;2023-07-20T07:38:04;101387.66;;;19.78;32.76
45040;BME280;30778;53.574;7.770;2023-07-20T07:40:32;101385.53;;;20.92;32.24
45040;BME280;30778;53.574;7.770;2023-07-20T07:42:57;101384.81;;;22.69;28.97
45040;BME280;30778;53.574;7.770;2023-07-20T07:45:26;101374.88;;;24.54;25.75
45040;BME280;30778;53.574;7.770;2023-07-20T07:47:51;101382.41;;;23.90;27.13
45040;BME280;30778;53.574;7.770;2023-07-20T07:50:17;101383.50;;;22.20;26.64
45040;BME280;30778;53.574;7.770;2023-07-20T07:52:42;101395.53;;;21.80;29.39
45040;BME280;30778;53.574;7.770;2023-07-20T07:55:10;101398.31;;;20.63;30.08
45040;BME280;30778;53.574;7.770;2023-07-20T07:57:38;101397.28;;;21.12;29.60
45040;BME280;30778;53.574;7.770;2023-07-20T08:00:04;101398.47;;;22.96;27.46
45040;BME280;30778;53.574;7.770;2023-07-20T08:02:30;101390.22;;;24.42;25.41
45040;BME280;30778;53.574;7.770;2023-07-20T08:04:55;101386.09;;;24.38;24.96
45040;BME280;30778;53.574;7.770;2023-07-20T08:07:23;101389.22;;;22.04;27.65
45040;BME280;30778;53.574;7.770;2023-07-20T08:09:49;101405.41;;;20.86;30.89
45040;BME280;30778;53.574;7.770;2023-07-20T08:12:16;101395.47;;;22.69;29.00
45040;BME280;30778;53.574;7.770;2023-07-20T08:14:43;101402.22;;;23.67;27.92
45040;BME280;30778;53.574;7.770;2023-07-20T08:17:09;101405.25;;;21.12;29.41
45040;BME280;30778;53.574;7.770;2023-07-20T08:19:36;101407.66;;;19.95;30.91
45040;BME280;30778;53.574;7.770;2023-07-20T08:22:05;101398.84;;;23.65;28.12
45040;BME280;30778;53.574;7.770;2023-07-20T08:24:30;101411.44;;;24.53;26.82
45040;BME280;30778;53.574;7.770;2023-07-20T08:26:55;101410.28;;;21.62;28.37
45040;BME280;30778;53.574;7.770;2023-07-20T08:29:21;101418.28;;;20.80;31.15
45040;BME280;30778;53.574;7.770;2023-07-20T08:31:46;101406.06;;;22.80;29.88
45040;BME280;30778;53.574;7.770;2023-07-20T08:34:14;101407.50;;;22.84;27.91
45040;BME280;30778;53.574;7.770;2023-07-20T08:36:42;101414.72;;;21.39;30.10
45040;BME280;30778;53.574;7.770;2023-07-20T08:39:11;101415.72;;;20.67;32.01
45040;BME280;30778;53.574;7.770;2023-07-20T08:41:36;101421.22;;;18.87;34.74
45040;BME280;30778;53.574;7.770;2023-07-20T08:44:04;101431.28;;;17.71;36.74
45040;BME280;30778;53.574;7.770;2023-07-20T08:46:33;101410.13;;;19.85;33.43
45040;BME280;30778;53.574;7.770;2023-07-20T08:49:00;101424.69;;;21.70;29.93
45040;BME280;30778;53.574;7.770;2023-07-20T08:51:28;101422.69;;;21.27;30.01
45040;BME280;30778;53.574;7.770;2023-07-20T08:53:55;101420.31;;;22.14;29.94
45040;BME280;30778;53.574;7.770;2023-07-20T08:56:24;101436.56;;;19.74;33.45
45040;BME280;30778;53.574;7.770;2023-07-20T08:58:54;101434.41;;;17.63;36.67
45040;BME280;30778;53.574;7.770;2023-07-20T09:01:22;101430.22;;;18.02;37.25
45040;BME280;30778;53.574;7.770;2023-07-20T09:03:47;101431.63;;;18.76;36.09
45040;BME280;30778;53.574;7.770;2023-07-20T09:06:14;101430.63;;;20.81;31.50
45040;BME280;30778;53.574;7.770;2023-07-20T09:08:41;101429.00;;;22.28;29.24
45040;BME280;30778;53.574;7.770;2023-07-20T09:11:07;101432.69;;;21.12;29.31
45040;BME280;30778;53.574;7.770;2023-07-20T09:13:34;101439.47;;;20.07;31.21
45040;BME280;30778;53.574;7.770;2023-07-20T09:16:00;101441.88;;;20.36;31.03
45040;BME280;30778;53.574;7.770;2023-07-20T09:18:27;101431.38;;;19.85;32.39
45040;BME280;30778;53.574;7.770;2023-07-20T09:21:04;101444.59;;;20.96;30.23
45040;BME280;30778;53.574;7.770;2023-07-20T09:23:33;101441.44;;;20.90;30.27
45040;BME280;30778;53.574;7.770;2023-07-20T09:26:00;101430.06;;;23.22;27.94
45040;BME280;30778;53.574;7.770;2023-07-20T09:28:26;101434.34;;;23.55;26.88
45040;BME280;30778;53.574;7.770;2023-07-20T09:30:54;101451.47;;;21.33;29.27
45040;BME280;30778;53.574;7.770;2023-07-20T09:33:22;101442.97;;;20.21;31.06
45040;BME280;30778;53.574;7.770;2023-07-20T09:35:48;101446.75;;;20.66;31.50
45040;BME280;30778;53.574;7.770;2023-07-20T09:38:14;101436.31;;;21.58;29.61
45040;BME280;30778;53.574;7.770;2023-07-20T09:40:41;101443.38;;;21.46;28.89
45040;BME280;30778;53.574;7.770;2023-07-20T09:43:08;101436.19;;;21.24;30.07
45040;BME280;30778;53.574;7.770;2023-07-20T09:45:43;101428.75;;;20.70;30.71
45040;BME280;30778;53.574;7.770;2023-07-20T09:48:10;101439.97;;;21.44;30.68
45040;BME280;30778;53.574;7.770;2023-07-20T09:50:43;101439.16;;;20.97;30.32
45040;BME280;30778;53.574;7.770;2023-07-20T09:53:13;101444.06;;;19.16;32.87
45040;BME280;30778;53.574;7.770;2023-07-20T09:55:49;101441.81;;;19.99;31.72
45040;BME280;30778;53.574;7.770;2023-07-20T09:58:15;101436.06;;;19.68;32.02
45040;BME280;30778;53.574;7.770;2023-07-20T10:00:44;101443.69;;;20.60;31.78
45040;BME280;30778;53.574;7.770;2023-07-20T10:03:14;101440.00;;;20.25;30.95
45040;BME280;30778;53.574;7.770;2023-07-20T10:05:53;101440.53;;;20.18;31.82
45040;BME280;30778;53.574;7.770;2023-07-20T10:08:24;101433.97;;;20.71;30.42
45040;BME280;30778;53.574;7.770;2023-07-20T10:10:50;101434.19;;;20.92;31.26
45040;BME280;30778;53.574;7.770;2023-07-20T10:13:26;101435.44;;;20.51;30.26
45040;BME280;30778;53.574;7.770;2023-07-20T10:16:03;101438.91;;;20.89;30.07
45040;BME280;30778;53.574;7.770;2023-07-20T10:18:41;101441.31;;;20.68;30.53
45040;BME280;30778;53.574;7.770;2023-07-20T10:21:11;101437.50;;;20.83;31.04
45040;BME280;30778;53.574;7.770;2023-07-20T10:23:38;101440.56;;;20.66;30.06
45040;BME280;30778;53.574;7.770;2023-07-20T10:26:04;101435.78;;;21.87;28.09
45040;BME280;30778;53.574;7.770;2023-07-20T10:28:31;101439.38;;;21.41;28.33
45040;BME280;30778;53.574;7.770;2023-07-20T10:30:57;101436.16;;;20.29;28.69
45040;BME280;30778;53.574;7.770;2023-07-20T10:33:24;101442.16;;;20.92;29.83
45040;BME280;30778;53.574;7.770;2023-07-20T10:35:54;101435.09;;;20.80;29.93
45040;BME280;30778;53.574;7.770;2023-07-20T10:38:39;101444.09;;;20.66;29.99
45040;BME280;30778;53.574;7.770;2023-07-20T10:41:21;101433.75;;;21.79;28.87
45040;BME280;30778;53.574;7.770;2023-07-20T10:43:50;101440.72;;;21.00;29.16
45040;BME280;30778;53.574;7.770;2023-07-20T10:49:06;101440.06;;;21.09;28.54
45040;BME280;30778;53.574;7.770;2023-07-20T10:51:45;101439.22;;;20.60;28.88
45040;BME280;30778;53.574;7.770;2023-07-20T10:56:41;101442.84;;;22.54;28.43
45040;BME280;30778;53.574;7.770;2023-07-20T10:59:18;101444.47;;;21.44;29.26
45040;BME280;30778;53.574;7.770;2023-07-20T11:01:45;101443.13;;;20.43;30.88
45040;BME280;30778;53.574;7.770;2023-07-20T11:04:12;101438.03;;;19.52;32.59
45040;BME280;30778;53.574;7.770;2023-07-20T11:06:42;101448.75;;;19.89;32.48
45040;BME280;30778;53.574;7.770;2023-07-20T11:09:13;101435.19;;;21.03;31.33
45040;BME280;30778;53.574;7.770;2023-07-20T11:11:43;101443.66;;;21.66;31.13
45040;BME280;30778;53.574;7.770;2023-07-20T11:14:29;101440.00;;;22.34;30.15
45040;BME280;30778;53.574;7.770;2023-07-20T11:17:11;101447.56;;;21.26;30.75
45040;BME280;30778;53.574;7.770;2023-07-20T11:19:36;101449.28;;;20.92;32.00
45040;BME280;30778;53.574;7.770;2023-07-20T11:22:04;101462.34;;;19.84;33.16
45040;BME280;30778;53.574;7.770;2023-07-20T11:24:33;101454.25;;;19.47;33.11
45040;BME280;30778;53.574;7.770;2023-07-20T11:26:59;101442.59;;;19.50;32.65
45040;BME280;30778;53.574;7.770;2023-07-20T11:29:25;101442.72;;;19.87;31.03
45040;BME280;30778;53.574;7.770;2023-07-20T11:31:55;101441.59;;;20.52;31.30
45040;BME280;30778;53.574;7.770;2023-07-20T11:34:21;101445.22;;;20.51;30.95
45040;BME280;30778;53.574;7.770;2023-07-20T11:36:49;101444.34;;;20.74;30.65
45040;BME280;30778;53.574;7.770;2023-07-20T11:39:19;101435.84;;;20.58;29.93
45040;BME280;30778;53.574;7.770;2023-07-20T11:41:50;101441.22;;;19.32;31.90
45040;BME280;30778;53.574;7.770;2023-07-20T11:44:20;101446.78;;;20.17;31.17
45040;BME280;30778;53.574;7.770;2023-07-20T11:47:03;101443.66;;;19.86;31.76
45040;BME280;30778;53.574;7.770;2023-07-20T11:49:30;101443.56;;;19.49;32.84
45040;BME280;30778;53.574;7.770;2023-07-20T11:51:56;101444.56;;;18.68;34.57
45040;BME280;30778;53.574;7.770;2023-07-20T11:54:25;101457.63;;;19.11;34.36
45040;BME280;30778;53.574;7.770;2023-07-20T11:56:54;101445.34;;;20.00;33.21
45040;BME280;30778;53.574;7.770;2023-07-20T11:59:21;101443.56;;;20.37;31.71
45040;BME280;30778;53.574;7.770;2023-07-20T12:01:46;101451.28;;;20.03;31.47
45040;BME280;30778;53.574;7.770;2023-07-20T12:04:12;101442.38;;;20.04;30.39
45040;BME280;30778;53.574;7.770;2023-07-20T12:06:37;101453.81;;;20.05;30.02
45040;BME280;30778;53.574;7.770;2023-07-20T12:09:03;101445.91;;;20.42;29.46
45040;BME280;30778;53.574;7.770;2023-07-20T12:11:35;101453.41;;;20.72;29.85
45040;BME280;30778;53.574;7.770;2023-07-20T12:14:08;101448.59;;;21.01;28.97
45040;BME280;30778;53.574;7.770;2023-07-20T12:16:38;101451.94;;;20.68;29.46
45040;BME280;30778;53.574;7.770;2023-07-20T12:19:12;101449.28;;;20.92;29.92
45040;BME280;30778;53.574;7.770;2023-07-20T12:21:40;101450.44;;;21.12;29.85
45040;BME280;30778;53.574;7.770;2023-07-20T12:24:08;101447.84;;;21.34;30.37
45040;BME280;30778;53.574;7.770;2023-07-20T12:26:35;101443.41;;;21.69;28.96
45040;BME280;30778;53.574;7.770;2023-07-20T12:29:03;101446.31;;;22.22;27.45
45040;BME280;30778;53.574;7.770;2023-07-20T12:31:30;101441.84;;;22.23;27.55
45040;BME280;30778;53.574;7.770;2023-07-20T12:33:57;101447.66;;;21.71;28.35
45040;BME280;30778;53.574;7.770;2023-07-20T12:36:24;101454.22;;;20.85;30.51
45040;BME280;30778;53.574;7.770;2023-07-20T12:38:50;101450.47;;;20.64;30.21
45040;BME280;30778;53.574;7.770;2023-07-20T12:41:17;101445.28;;;20.86;29.85
45040;BME280;30778;53.574;7.770;2023-07-20T12:43:44;101447.00;;;20.50;30.11
45040;BME280;30778;53.574;7.770;2023-07-20T12:46:11;101441.50;;;20.53;30.62
45040;BME280;30778;53.574;7.770;2023-07-20T12:48:39;101437.44;;;21.20;28.80
45040;BME280;30778;53.574;7.770;2023-07-20T12:51:09;101434.75;;;21.67;28.54
45040;BME280;30778;53.574;7.770;2023-07-20T12:53:36;101438.03;;;21.24;28.38
45040;BME280;30778;53.574;7.770;2023-07-20T12:56:02;101435.72;;;21.19;28.45
45040;BME280;30778;53.574;7.770;2023-07-20T12:58:28;101433.13;;;21.53;28.05
45040;BME280;30778;53.574;7.770;2023-07-20T13:00:53;101433.63;;;22.14;28.16
45040;BME280;30778;53.574;7.770;2023-07-20T13:03:22;101433.13;;;22.21;28.62
45040;BME280;30778;53.574;7.770;2023-07-20T13:05:48;101430.25;;;21.90;27.23